エセイサ国際空港の過去48時間の天気

エセイサ国際空港 (Ezeiza Aerodrome)

現在時刻: 12/4 02:09 -03 (12/4 05:09 UTC) 以下の時間は現地時間です。

過去48時間のMETAR気象情報
時間 風向 風速(m/s) 視程 気温(℃) 湿度(%) 気圧(hPa) 天気現象
4 02:00 南南東 6 10km以上 16 88 1014
4 01:37 南南東 5 10km以上 17 72 1014
4 01:00 西南西 3 10km以上 17 72 1013
4 00:00 西 3 10km以上 18 68 1012
3 23:00 西 3 10km以上 19 64 1012
3 22:00 西北西 3 10km以上 22 46 1011
3 21:00 西南西 3 10km以上 21 53 1010
3 20:00 西 3 10km以上 24 36 1009
3 19:00 南西 6 10km以上 22 50 1009
3 18:00 西南西 4 10km以上 25 30 1008
3 17:00 2 10km以上 27 28 1007
3 16:00 2 10km以上 28 25 1007
3 15:00 西北西 2 10km以上 27 32 1007
3 14:00 西南西 3 10km以上 27 30 1007
3 13:00 西北西 2 10km以上 26 34 1008
3 11:00 西南西 2 10km以上 24 44 1008
3 10:00 2 10km以上 21 49 1007
3 09:00 2 10km以上 20 56 1007
3 08:00 南西 2 10km以上 18 73 1008
3 07:00 西 1 10km以上 15 82 1007
3 06:00 西南西 2 10km以上 14 94 1007
3 05:00 静穏 0 10km以上 16 94 1007
3 04:00 南南東 2 10km以上 17 100 1007
3 03:00 南南東 2 10km以上 17 100 1007
3 02:00 2 10km以上 18 94 1007
3 01:37 南南西 2 10km以上 18 100 1007
3 01:00 南南西 1 10km以上 18 100 1007
3 00:00 南南西 2 10km以上 19 94 1007
2 23:00 4 8000m 19 94 1008 弱い雨
2 22:00 南南西 3 8000m 19 100 1009 弱い雨
2 21:00 西 3 8000m 19 94 1007 弱い雨
2 20:00 西北西 3 10km以上 19 94 1006
2 19:00 4 9000m 20 94 1005 弱い雨 雷雨
2 18:28 4 9000m 21 94 1006 弱い雷雨
2 18:00 6 3000m 21 94 1006 弱い雷雨 もや 雷雨
2 17:00 北西 5 1500m 21 94 1005 雷雨 雷雨
2 16:40 北北西 7 4000m 23 73 1004 雷雨
2 16:32 北北西 7 9000m 25 65 1004 弱い雷雨
2 16:23 東北東 3 10km以上 29 52 1004
2 16:00 東北東 2 10km以上 29 52 1004
2 15:00 2 10km以上 28 55 1005
2 14:00 北東 3 10km以上 29 48 1005
2 13:00 2 10km以上 29 48 -
2 12:00 北北東 3 10km以上 28 51 1007
2 11:00 北東 4 10km以上 28 48 1008
2 10:00 3 10km以上 26 54 1009
2 09:00 北北東 4 10km以上 25 65 1009
2 08:00 東北東 4 10km以上 24 69 1009
2 07:00 東北東 3 9000m 21 83 1009
2 06:00 2 6000m 19 88 1009
2 05:00 静穏 0 5000m 18 88 1008 もや
2 04:00 2 8000m 19 94 1009
2 03:00 静穏 0 7000m 18 94 1009
SAEZ 040500Z 16012KT 9999 FEW016 16/14 Q1014 NOSIG
SAEZ 040437Z 16010KT CAVOK 17/12 Q1014 NOSIG
SAEZ 040400Z 24005KT CAVOK 17/12 Q1013 NOSIG
SAEZ 040300Z 28005KT CAVOK 18/12 Q1012 NOSIG
SAEZ 040200Z 28006KT CAVOK 19/12 Q1012 NOSIG
SAEZ 040100Z 30005KT CAVOK 22/10 Q1011 NOSIG
SAEZ 040000Z 25006KT CAVOK 21/11 Q1010 NOSIG
SAEZ 032300Z 28006KT CAVOK 24/08 Q1009 NOSIG
SAEZ 032200Z 23011KT CAVOK 22/11 Q1009 TEMPO 8000 -SHRA FEW050TCU
SAEZ 032100Z 25007KT CAVOK 25/06 Q1008 TEMPO 8000 -SHRA FEW050TCU
SAEZ 032000Z 18003KT CAVOK 27/07 Q1007 TEMPO 8000 -SHRA FEW050TCU
SAEZ 031900Z 18004KT CAVOK 28/06 Q1007 NOSIG
SAEZ 031800Z 29004KT CAVOK 27/09 Q1007 NOSIG
SAEZ 031700Z 25005KT CAVOK 27/08 Q1007 NOSIG
SAEZ 031600Z 29003KT CAVOK 26/09 Q1008 NOSIG
SAEZ 031400Z 25003KT 190V270 CAVOK 24/11 Q1008 NOSIG
SAEZ 031300Z 19003KT 140V210 CAVOK 21/10 Q1007 NOSIG
SAEZ 031200Z 18004KT CAVOK 20/11 Q1007 NOSIG
SAEZ 031100Z 23003KT CAVOK 18/13 Q1008 NOSIG
SAEZ 031000Z 26002KT CAVOK 15/12 Q1007 NOSIG
SAEZ 030900Z 24003KT CAVOK 14/13 Q1007 NOSIG
SAEZ 030800Z 00000KT 9999 FEW035 SCT080 16/15 Q1007 NOSIG
SAEZ 030700Z 16004KT 9999 SCT006 17/17 Q1007 NOSIG
SAEZ 030600Z 15004KT 120V180 9999 FEW006 17/17 Q1007 NOSIG
SAEZ 030500Z 19004KT 170V250 9999 SCT004 BKN009 18/17 Q1007 NOSIG
SAEZ 030437Z 21003KT 170V230 9999 BKN004 18/18 Q1007 NOSIG
SAEZ 030400Z 21002KT 9999 SCT006 18/18 Q1007 NOSIG
SAEZ 030300Z 20003KT 9999 SCT006 BKN010 OVC060 19/18 Q1007 NOSIG
SAEZ 030200Z 08008KT 8000 -RA SCT025 BKN035 OVC070 19/18 Q1008 NOSIG
SAEZ 030100Z 20005KT 8000 -RA SCT010 SCT030 OVC060 19/19 Q1009 BECMG 7000 RA BKN030
SAEZ 030000Z 27005KT 8000 -RA FEW015 OVC060 19/18 Q1007 NOSIG
SAEZ 022300Z 29005KT CAVOK 19/18 Q1006 NOSIG
SAEZ 022200Z 35007KT 9000 -RA FEW011 OVC060 20/19 Q1005 5000 TSRA BKN020 FEW050CB
SAEZ 022128Z 35007KT 9000 -TSRA OVC011 FEW040CB 21/20 Q1006 NOSIG
SAEZ 022100Z 36012KT 3000 -TSRA BR BKN012 FEW040CB OVC060 21/20 Q1006 5000 TSRA BKN020 FEW050CB
SAEZ 022000Z 32009KT 1500 TSRA BKN004 FEW035CB 21/20 Q1005 5000 TSRA BKN020 FEW050CB
SAEZ 021940Z 33014KT 4000 TSRA SCT013 FEW050CB BKN070 23/18 Q1004 NOSIG
SAEZ 021932Z 33013KT 9000 -TSRA FEW050CB BKN070 25/18 Q1004 NOSIG
SAEZ 021923Z 07006KT 9999 TS FEW050CB OVC200 29/18 Q1004 NOSIG
SAEZ 021900Z 06004KT 9999 FEW050TCU OVC200 29/18 Q1004 NOSIG
SAEZ 021800Z 01004KT 9999 FEW050TCU OVC200 28/18 Q1005 NOSIG
SAEZ 021700Z 04005KT CAVOK 29/17 Q1005 NOSIG
SAEZ 021600Z 35004KT 9999 FEW047TCU OVC200 29/17 Q1007BECMG 9999 FEW040TCU
SAEZ 021500Z 03006KT CAVOK 28/17 Q1007 NOSIG
SAEZ 021400Z 04008KT CAVOK 28/16 Q1008 NOSIG
SAEZ 021300Z 01005KT 9999 FEW045TCU OVC200 26/16 Q1009 NOSIG
SAEZ 021200Z 03007KT 9999 FEW050TCU BKN200 25/18 Q1009 NOSIG
SAEZ 021100Z 07008KT 9999 FEW050TCU BKN200 24/18 Q1009 NOSIG
SAEZ 021000Z 07005KT 9000 FEW060TCU 21/18 Q1009 NOSIG
SAEZ 020900Z 08003KT 6000 FEW060TCU 19/17 Q1009 BECMG CAVOK
SAEZ 020800Z 00000KT 5000 BR NSC 18/16 Q1008 NOSIG
SAEZ 020700Z 09004KT 8000 NSC 19/18 Q1009 NOSIG
SAEZ 020600Z 00000KT 7000 NSC 18/17 Q1009 NOSIG